Jackson (JAN/KJAN)

Map

Destinations

Information

Location
Jackson, Mississippi
Local Time
14:55 / 2:55 pm
GMT Time
19:55 / 7:55 pm
Gates
Unassigned
No FAA reported delays
METAR KJAN 281854Z 17025G34KT 10SM SCT041 31/21 A2983 RMK AO2 PK WND 18035/1824 SLP095 T03110206
TAF KJAN 281739Z 2818/2918 18026G34KT P6SM BKN035 FM282000 17018G28KT P6SM SCT035 FM290900 15014G20KT P6SM OVC015